sensor_id;sensor_type;location;lat;lon;timestamp;P1;durP1;ratioP1;P2;durP2;ratioP2
10132;SDS011;5106;50.926;7.080;2023-01-10T00:00:22;5.87;;;2.73;;
10132;SDS011;5106;50.926;7.080;2023-01-10T00:02:49;6.63;;;3.10;;
10132;SDS011;5106;50.926;7.080;2023-01-10T00:05:15;6.13;;;3.13;;
10132;SDS011;5106;50.926;7.080;2023-01-10T00:07:42;5.23;;;2.87;;
10132;SDS011;5106;50.926;7.080;2023-01-10T00:10:08;5.27;;;2.53;;
10132;SDS011;5106;50.926;7.080;2023-01-10T00:12:34;7.27;;;3.47;;
10132;SDS011;5106;50.926;7.080;2023-01-10T00:15:18;5.93;;;2.70;;
10132;SDS011;5106;50.926;7.080;2023-01-10T00:17:44;7.80;;;2.60;;
10132;SDS011;5106;50.926;7.080;2023-01-10T00:20:10;7.30;;;2.33;;
10132;SDS011;5106;50.926;7.080;2023-01-10T00:22:36;9.00;;;2.83;;
10132;SDS011;5106;50.926;7.080;2023-01-10T00:25:01;4.47;;;2.27;;
10132;SDS011;5106;50.926;7.080;2023-01-10T00:27:27;7.20;;;2.80;;
10132;SDS011;5106;50.926;7.080;2023-01-10T00:29:53;4.13;;;2.23;;
10132;SDS011;5106;50.926;7.080;2023-01-10T00:32:20;7.27;;;2.27;;
10132;SDS011;5106;50.926;7.080;2023-01-10T00:34:45;7.27;;;2.60;;
10132;SDS011;5106;50.926;7.080;2023-01-10T00:37:11;4.40;;;2.00;;
10132;SDS011;5106;50.926;7.080;2023-01-10T00:39:37;6.33;;;1.90;;
10132;SDS011;5106;50.926;7.080;2023-01-10T00:42:03;6.80;;;2.17;;
10132;SDS011;5106;50.926;7.080;2023-01-10T00:44:48;5.70;;;2.40;;
10132;SDS011;5106;50.926;7.080;2023-01-10T00:47:13;7.27;;;2.20;;
10132;SDS011;5106;50.926;7.080;2023-01-10T00:49:39;5.80;;;2.20;;
10132;SDS011;5106;50.926;7.080;2023-01-10T00:52:04;4.53;;;2.30;;
10132;SDS011;5106;50.926;7.080;2023-01-10T00:54:30;3.57;;;1.93;;
10132;SDS011;5106;50.926;7.080;2023-01-10T00:56:56;6.33;;;1.90;;
10132;SDS011;5106;50.926;7.080;2023-01-10T00:59:22;4.57;;;2.07;;
10132;SDS011;5106;50.926;7.080;2023-01-10T01:01:48;5.23;;;1.53;;
10132;SDS011;5106;50.926;7.080;2023-01-10T01:04:15;8.03;;;2.23;;
10132;SDS011;5106;50.926;7.080;2023-01-10T01:06:44;7.03;;;1.90;;
10132;SDS011;5106;50.926;7.080;2023-01-10T01:09:11;3.50;;;1.63;;
10132;SDS011;5106;50.926;7.080;2023-01-10T01:11:37;5.47;;;2.00;;
10132;SDS011;5106;50.926;7.080;2023-01-10T01:14:03;7.57;;;1.90;;
10132;SDS011;5106;50.926;7.080;2023-01-10T01:16:28;7.30;;;2.10;;
10132;SDS011;5106;50.926;7.080;2023-01-10T01:18:54;7.10;;;2.10;;
10132;SDS011;5106;50.926;7.080;2023-01-10T01:21:20;6.03;;;2.17;;
10132;SDS011;5106;50.926;7.080;2023-01-10T01:23:45;4.87;;;1.97;;
10132;SDS011;5106;50.926;7.080;2023-01-10T01:26:11;9.53;;;1.90;;
10132;SDS011;5106;50.926;7.080;2023-01-10T01:28:36;5.43;;;2.20;;
10132;SDS011;5106;50.926;7.080;2023-01-10T01:31:06;6.60;;;2.13;;
10132;SDS011;5106;50.926;7.080;2023-01-10T01:33:32;8.37;;;2.37;;
10132;SDS011;5106;50.926;7.080;2023-01-10T01:35:58;7.47;;;2.40;;
10132;SDS011;5106;50.926;7.080;2023-01-10T01:38:24;5.87;;;2.10;;
10132;SDS011;5106;50.926;7.080;2023-01-10T01:40:49;7.10;;;2.50;;
10132;SDS011;5106;50.926;7.080;2023-01-10T01:45:50;5.67;;;1.87;;
10132;SDS011;5106;50.926;7.080;2023-01-10T01:50:58;8.03;;;2.43;;
10132;SDS011;5106;50.926;7.080;2023-01-10T01:53:45;6.73;;;2.13;;
10132;SDS011;5106;50.926;7.080;2023-01-10T01:58:58;6.20;;;2.27;;
10132;SDS011;5106;50.926;7.080;2023-01-10T02:01:28;6.13;;;2.40;;
10132;SDS011;5106;50.926;7.080;2023-01-10T02:03:57;7.70;;;2.50;;
10132;SDS011;5106;50.926;7.080;2023-01-10T02:06:30;4.67;;;2.20;;
10132;SDS011;5106;50.926;7.080;2023-01-10T02:09:02;8.47;;;2.30;;
10132;SDS011;5106;50.926;7.080;2023-01-10T02:11:36;4.63;;;2.20;;
10132;SDS011;5106;50.926;7.080;2023-01-10T02:14:02;7.80;;;2.50;;
10132;SDS011;5106;50.926;7.080;2023-01-10T02:16:30;7.93;;;2.23;;
10132;SDS011;5106;50.926;7.080;2023-01-10T02:18:56;7.23;;;2.33;;
10132;SDS011;5106;50.926;7.080;2023-01-10T02:26:59;7.77;;;2.20;;
10132;SDS011;5106;50.926;7.080;2023-01-10T02:34:34;8.20;;;2.50;;
10132;SDS011;5106;50.926;7.080;2023-01-10T02:40:21;10.43;;;2.63;;
10132;SDS011;5106;50.926;7.080;2023-01-10T02:45:32;7.53;;;2.27;;
10132;SDS011;5106;50.926;7.080;2023-01-10T02:48:02;8.00;;;2.43;;
10132;SDS011;5106;50.926;7.080;2023-01-10T02:53:08;11.30;;;2.33;;
10132;SDS011;5106;50.926;7.080;2023-01-10T02:58:59;6.33;;;2.40;;
10132;SDS011;5106;50.926;7.080;2023-01-10T03:07:34;6.73;;;2.50;;
10132;SDS011;5106;50.926;7.080;2023-01-10T03:15:23;6.73;;;2.30;;
10132;SDS011;5106;50.926;7.080;2023-01-10T03:17:54;11.53;;;2.23;;
10132;SDS011;5106;50.926;7.080;2023-01-10T03:20:23;9.93;;;2.33;;
10132;SDS011;5106;50.926;7.080;2023-01-10T03:22:50;12.97;;;2.67;;
10132;SDS011;5106;50.926;7.080;2023-01-10T03:25:20;7.17;;;2.20;;
10132;SDS011;5106;50.926;7.080;2023-01-10T03:27:57;6.87;;;2.33;;
10132;SDS011;5106;50.926;7.080;2023-01-10T03:33:00;9.57;;;2.50;;
10132;SDS011;5106;50.926;7.080;2023-01-10T03:35:45;8.20;;;2.43;;
10132;SDS011;5106;50.926;7.080;2023-01-10T03:38:20;6.67;;;2.20;;
10132;SDS011;5106;50.926;7.080;2023-01-10T03:41:11;6.93;;;2.40;;
10132;SDS011;5106;50.926;7.080;2023-01-10T03:44:22;8.33;;;2.13;;
10132;SDS011;5106;50.926;7.080;2023-01-10T03:50:02;6.30;;;2.13;;
10132;SDS011;5106;50.926;7.080;2023-01-10T03:52:33;8.00;;;2.47;;
10132;SDS011;5106;50.926;7.080;2023-01-10T03:54:59;5.43;;;1.80;;
10132;SDS011;5106;50.926;7.080;2023-01-10T03:57:26;7.87;;;2.00;;
10132;SDS011;5106;50.926;7.080;2023-01-10T03:59:53;8.13;;;2.50;;
10132;SDS011;5106;50.926;7.080;2023-01-10T04:02:21;8.33;;;2.63;;
10132;SDS011;5106;50.926;7.080;2023-01-10T04:04:52;7.70;;;2.20;;
10132;SDS011;5106;50.926;7.080;2023-01-10T04:07:17;8.10;;;2.30;;
10132;SDS011;5106;50.926;7.080;2023-01-10T04:09:43;7.27;;;2.30;;
10132;SDS011;5106;50.926;7.080;2023-01-10T04:12:08;8.43;;;2.60;;
10132;SDS011;5106;50.926;7.080;2023-01-10T04:14:34;5.33;;;2.00;;
10132;SDS011;5106;50.926;7.080;2023-01-10T04:17:00;8.23;;;2.40;;
10132;SDS011;5106;50.926;7.080;2023-01-10T04:19:25;11.27;;;2.40;;
10132;SDS011;5106;50.926;7.080;2023-01-10T04:21:51;8.93;;;2.27;;
10132;SDS011;5106;50.926;7.080;2023-01-10T04:24:16;9.73;;;2.20;;
10132;SDS011;5106;50.926;7.080;2023-01-10T04:26:42;7.40;;;2.13;;
10132;SDS011;5106;50.926;7.080;2023-01-10T04:29:08;8.07;;;2.30;;
10132;SDS011;5106;50.926;7.080;2023-01-10T04:31:34;9.37;;;2.30;;
10132;SDS011;5106;50.926;7.080;2023-01-10T04:34:00;9.80;;;2.50;;
10132;SDS011;5106;50.926;7.080;2023-01-10T04:36:26;7.53;;;2.60;;
10132;SDS011;5106;50.926;7.080;2023-01-10T04:38:52;8.33;;;2.83;;
10132;SDS011;5106;50.926;7.080;2023-01-10T04:41:17;6.90;;;2.27;;
10132;SDS011;5106;50.926;7.080;2023-01-10T04:43:43;7.63;;;2.40;;
10132;SDS011;5106;50.926;7.080;2023-01-10T04:46:09;8.47;;;2.73;;
10132;SDS011;5106;50.926;7.080;2023-01-10T04:48:34;8.67;;;2.73;;
10132;SDS011;5106;50.926;7.080;2023-01-10T04:51:01;8.87;;;2.83;;
10132;SDS011;5106;50.926;7.080;2023-01-10T04:53:26;8.80;;;2.60;;
10132;SDS011;5106;50.926;7.080;2023-01-10T04:55:52;11.40;;;3.03;;
10132;SDS011;5106;50.926;7.080;2023-01-10T04:58:18;10.63;;;3.07;;
10132;SDS011;5106;50.926;7.080;2023-01-10T05:00:43;7.63;;;2.60;;
10132;SDS011;5106;50.926;7.080;2023-01-10T05:03:09;7.30;;;2.20;;
10132;SDS011;5106;50.926;7.080;2023-01-10T05:05:35;9.13;;;2.40;;
10132;SDS011;5106;50.926;7.080;2023-01-10T05:08:01;7.90;;;3.17;;
10132;SDS011;5106;50.926;7.080;2023-01-10T05:10:26;15.03;;;3.30;;
10132;SDS011;5106;50.926;7.080;2023-01-10T05:12:52;6.33;;;2.47;;
10132;SDS011;5106;50.926;7.080;2023-01-10T05:15:17;8.70;;;2.50;;
10132;SDS011;5106;50.926;7.080;2023-01-10T05:17:45;8.90;;;2.37;;
10132;SDS011;5106;50.926;7.080;2023-01-10T05:20:10;8.13;;;3.20;;
10132;SDS011;5106;50.926;7.080;2023-01-10T05:22:37;12.03;;;2.97;;
10132;SDS011;5106;50.926;7.080;2023-01-10T05:25:03;8.73;;;2.67;;
10132;SDS011;5106;50.926;7.080;2023-01-10T05:27:30;11.87;;;3.10;;
10132;SDS011;5106;50.926;7.080;2023-01-10T05:29:56;12.63;;;3.13;;
10132;SDS011;5106;50.926;7.080;2023-01-10T05:32:22;11.37;;;2.90;;
10132;SDS011;5106;50.926;7.080;2023-01-10T05:34:47;11.40;;;2.90;;
10132;SDS011;5106;50.926;7.080;2023-01-10T05:37:13;13.43;;;3.67;;
10132;SDS011;5106;50.926;7.080;2023-01-10T05:39:39;10.47;;;3.33;;
10132;SDS011;5106;50.926;7.080;2023-01-10T05:42:05;10.50;;;2.90;;
10132;SDS011;5106;50.926;7.080;2023-01-10T05:44:30;10.57;;;3.13;;
10132;SDS011;5106;50.926;7.080;2023-01-10T05:46:56;10.20;;;2.70;;
10132;SDS011;5106;50.926;7.080;2023-01-10T05:49:22;8.90;;;2.93;;
10132;SDS011;5106;50.926;7.080;2023-01-10T05:51:47;8.47;;;2.67;;
10132;SDS011;5106;50.926;7.080;2023-01-10T05:54:13;9.17;;;2.67;;
10132;SDS011;5106;50.926;7.080;2023-01-10T05:56:38;8.40;;;2.70;;
10132;SDS011;5106;50.926;7.080;2023-01-10T05:59:04;6.13;;;2.27;;
10132;SDS011;5106;50.926;7.080;2023-01-10T06:01:30;10.50;;;2.70;;
10132;SDS011;5106;50.926;7.080;2023-01-10T06:03:55;10.73;;;3.03;;
10132;SDS011;5106;50.926;7.080;2023-01-10T06:06:21;8.97;;;3.13;;
10132;SDS011;5106;50.926;7.080;2023-01-10T06:08:46;11.70;;;3.30;;
10132;SDS011;5106;50.926;7.080;2023-01-10T06:11:12;11.27;;;2.97;;
10132;SDS011;5106;50.926;7.080;2023-01-10T06:13:37;13.70;;;3.40;;
10132;SDS011;5106;50.926;7.080;2023-01-10T06:16:03;12.70;;;3.23;;
10132;SDS011;5106;50.926;7.080;2023-01-10T06:18:29;10.97;;;3.50;;
10132;SDS011;5106;50.926;7.080;2023-01-10T06:20:54;10.47;;;2.90;;
10132;SDS011;5106;50.926;7.080;2023-01-10T06:23:20;13.40;;;3.10;;
10132;SDS011;5106;50.926;7.080;2023-01-10T06:25:46;11.47;;;2.93;;
10132;SDS011;5106;50.926;7.080;2023-01-10T06:28:12;11.73;;;3.30;;
10132;SDS011;5106;50.926;7.080;2023-01-10T06:30:39;9.03;;;3.07;;
10132;SDS011;5106;50.926;7.080;2023-01-10T06:33:07;11.67;;;3.07;;
10132;SDS011;5106;50.926;7.080;2023-01-10T06:35:34;11.87;;;2.80;;
10132;SDS011;5106;50.926;7.080;2023-01-10T06:38:00;10.60;;;3.27;;
10132;SDS011;5106;50.926;7.080;2023-01-10T06:40:26;8.60;;;2.70;;
10132;SDS011;5106;50.926;7.080;2023-01-10T06:42:52;8.23;;;2.90;;
10132;SDS011;5106;50.926;7.080;2023-01-10T06:45:18;10.23;;;2.80;;
10132;SDS011;5106;50.926;7.080;2023-01-10T06:47:44;12.83;;;3.43;;
10132;SDS011;5106;50.926;7.080;2023-01-10T06:50:10;9.83;;;3.43;;
10132;SDS011;5106;50.926;7.080;2023-01-10T06:52:37;8.97;;;3.03;;
10132;SDS011;5106;50.926;7.080;2023-01-10T06:55:03;7.37;;;2.70;;
10132;SDS011;5106;50.926;7.080;2023-01-10T06:57:29;11.37;;;3.20;;
10132;SDS011;5106;50.926;7.080;2023-01-10T06:59:54;13.13;;;3.10;;
10132;SDS011;5106;50.926;7.080;2023-01-10T07:02:20;9.93;;;3.50;;
10132;SDS011;5106;50.926;7.080;2023-01-10T07:04:47;8.73;;;3.33;;
10132;SDS011;5106;50.926;7.080;2023-01-10T07:07:13;8.23;;;3.00;;
10132;SDS011;5106;50.926;7.080;2023-01-10T07:09:38;14.40;;;4.07;;
10132;SDS011;5106;50.926;7.080;2023-01-10T07:12:04;12.30;;;3.93;;
10132;SDS011;5106;50.926;7.080;2023-01-10T07:14:30;13.17;;;3.73;;
10132;SDS011;5106;50.926;7.080;2023-01-10T07:16:56;12.83;;;4.40;;
10132;SDS011;5106;50.926;7.080;2023-01-10T07:19:21;11.67;;;4.07;;
10132;SDS011;5106;50.926;7.080;2023-01-10T07:21:47;11.20;;;4.27;;
10132;SDS011;5106;50.926;7.080;2023-01-10T07:24:12;11.97;;;3.70;;
10132;SDS011;5106;50.926;7.080;2023-01-10T07:26:38;12.53;;;3.37;;
10132;SDS011;5106;50.926;7.080;2023-01-10T07:29:03;14.13;;;3.40;;
10132;SDS011;5106;50.926;7.080;2023-01-10T07:31:29;10.47;;;3.80;;
10132;SDS011;5106;50.926;7.080;2023-01-10T07:33:55;11.40;;;3.60;;
10132;SDS011;5106;50.926;7.080;2023-01-10T07:36:21;8.57;;;3.33;;
10132;SDS011;5106;50.926;7.080;2023-01-10T07:38:46;9.10;;;3.10;;
10132;SDS011;5106;50.926;7.080;2023-01-10T07:41:12;11.50;;;3.43;;
10132;SDS011;5106;50.926;7.080;2023-01-10T07:43:38;9.03;;;2.73;;
10132;SDS011;5106;50.926;7.080;2023-01-10T07:46:04;9.40;;;3.33;;
10132;SDS011;5106;50.926;7.080;2023-01-10T07:48:36;7.93;;;3.20;;
10132;SDS011;5106;50.926;7.080;2023-01-10T07:51:02;10.87;;;3.43;;
10132;SDS011;5106;50.926;7.080;2023-01-10T07:53:29;6.93;;;2.70;;
10132;SDS011;5106;50.926;7.080;2023-01-10T07:55:58;12.17;;;3.27;;
10132;SDS011;5106;50.926;7.080;2023-01-10T07:58:25;9.87;;;2.97;;
10132;SDS011;5106;50.926;7.080;2023-01-10T08:00:55;11.50;;;2.93;;
10132;SDS011;5106;50.926;7.080;2023-01-10T08:03:25;9.73;;;3.00;;
10132;SDS011;5106;50.926;7.080;2023-01-10T08:06:04;11.30;;;3.40;;
10132;SDS011;5106;50.926;7.080;2023-01-10T08:08:31;10.50;;;3.00;;
10132;SDS011;5106;50.926;7.080;2023-01-10T08:10:58;11.47;;;3.43;;
10132;SDS011;5106;50.926;7.080;2023-01-10T08:13:26;9.47;;;3.33;;
10132;SDS011;5106;50.926;7.080;2023-01-10T08:15:52;8.23;;;3.13;;
10132;SDS011;5106;50.926;7.080;2023-01-10T08:18:18;7.70;;;3.00;;
10132;SDS011;5106;50.926;7.080;2023-01-10T08:20:45;12.60;;;3.20;;
10132;SDS011;5106;50.926;7.080;2023-01-10T08:23:12;9.23;;;3.77;;
10132;SDS011;5106;50.926;7.080;2023-01-10T08:25:38;6.33;;;2.80;;
10132;SDS011;5106;50.926;7.080;2023-01-10T08:28:04;10.00;;;3.10;;
10132;SDS011;5106;50.926;7.080;2023-01-10T08:30:29;13.93;;;3.53;;
10132;SDS011;5106;50.926;7.080;2023-01-10T08:32:56;11.67;;;3.13;;
10132;SDS011;5106;50.926;7.080;2023-01-10T08:35:22;13.33;;;3.33;;
10132;SDS011;5106;50.926;7.080;2023-01-10T08:37:47;10.20;;;3.00;;
10132;SDS011;5106;50.926;7.080;2023-01-10T08:40:13;11.63;;;3.73;;
10132;SDS011;5106;50.926;7.080;2023-01-10T08:42:39;12.67;;;3.57;;
10132;SDS011;5106;50.926;7.080;2023-01-10T08:45:05;7.50;;;3.10;;
10132;SDS011;5106;50.926;7.080;2023-01-10T08:47:31;12.47;;;3.40;;
10132;SDS011;5106;50.926;7.080;2023-01-10T08:49:57;8.33;;;2.97;;
10132;SDS011;5106;50.926;7.080;2023-01-10T08:52:22;8.03;;;2.77;;
10132;SDS011;5106;50.926;7.080;2023-01-10T08:54:48;9.10;;;2.60;;
10132;SDS011;5106;50.926;7.080;2023-01-10T08:57:14;10.73;;;2.80;;
10132;SDS011;5106;50.926;7.080;2023-01-10T08:59:39;8.33;;;3.10;;
10132;SDS011;5106;50.926;7.080;2023-01-10T09:02:05;11.03;;;2.67;;
10132;SDS011;5106;50.926;7.080;2023-01-10T09:04:32;9.53;;;3.10;;
10132;SDS011;5106;50.926;7.080;2023-01-10T09:06:58;9.37;;;3.00;;
10132;SDS011;5106;50.926;7.080;2023-01-10T09:09:23;16.20;;;3.50;;
10132;SDS011;5106;50.926;7.080;2023-01-10T09:11:49;13.03;;;3.20;;
10132;SDS011;5106;50.926;7.080;2023-01-10T09:14:14;11.70;;;3.20;;
10132;SDS011;5106;50.926;7.080;2023-01-10T09:16:40;11.23;;;3.13;;
10132;SDS011;5106;50.926;7.080;2023-01-10T09:19:06;9.50;;;3.17;;
10132;SDS011;5106;50.926;7.080;2023-01-10T09:21:31;8.70;;;2.57;;
10132;SDS011;5106;50.926;7.080;2023-01-10T09:23:57;11.30;;;3.23;;
10132;SDS011;5106;50.926;7.080;2023-01-10T09:26:23;13.13;;;3.00;;
10132;SDS011;5106;50.926;7.080;2023-01-10T09:28:49;13.23;;;3.60;;
10132;SDS011;5106;50.926;7.080;2023-01-10T09:31:14;13.87;;;3.77;;
10132;SDS011;5106;50.926;7.080;2023-01-10T09:33:40;10.97;;;2.87;;
10132;SDS011;5106;50.926;7.080;2023-01-10T09:36:06;10.00;;;3.20;;
10132;SDS011;5106;50.926;7.080;2023-01-10T09:38:32;12.53;;;2.77;;
10132;SDS011;5106;50.926;7.080;2023-01-10T09:41:12;8.97;;;2.83;;
10132;SDS011;5106;50.926;7.080;2023-01-10T09:44:24;12.37;;;3.10;;
10132;SDS011;5106;50.926;7.080;2023-01-10T09:53:11;12.17;;;3.00;;
10132;SDS011;5106;50.926;7.080;2023-01-10T09:55:40;14.67;;;3.10;;
10132;SDS011;5106;50.926;7.080;2023-01-10T09:58:11;13.33;;;3.13;;
10132;SDS011;5106;50.926;7.080;2023-01-10T10:04:00;10.47;;;3.10;;
10132;SDS011;5106;50.926;7.080;2023-01-10T10:06:43;12.30;;;2.87;;
10132;SDS011;5106;50.926;7.080;2023-01-10T10:09:12;11.57;;;3.00;;
10132;SDS011;5106;50.926;7.080;2023-01-10T10:11:46;9.67;;;3.00;;
10132;SDS011;5106;50.926;7.080;2023-01-10T10:14:33;12.30;;;3.07;;
10132;SDS011;5106;50.926;7.080;2023-01-10T10:17:33;11.53;;;3.37;;
10132;SDS011;5106;50.926;7.080;2023-01-10T10:22:53;10.80;;;3.43;;
10132;SDS011;5106;50.926;7.080;2023-01-10T10:36:27;14.97;;;3.60;;
10132;SDS011;5106;50.926;7.080;2023-01-10T10:39:02;9.13;;;2.63;;
10132;SDS011;5106;50.926;7.080;2023-01-10T10:44:00;13.37;;;3.00;;
10132;SDS011;5106;50.926;7.080;2023-01-10T10:46:42;12.77;;;2.77;;
10132;SDS011;5106;50.926;7.080;2023-01-10T10:49:17;14.27;;;3.30;;
10132;SDS011;5106;50.926;7.080;2023-01-10T10:51:51;10.70;;;2.57;;
10132;SDS011;5106;50.926;7.080;2023-01-10T10:54:17;8.87;;;3.20;;
10132;SDS011;5106;50.926;7.080;2023-01-10T10:56:43;11.20;;;3.43;;
10132;SDS011;5106;50.926;7.080;2023-01-10T10:59:14;13.73;;;3.07;;
10132;SDS011;5106;50.926;7.080;2023-01-10T11:01:46;10.17;;;3.07;;
10132;SDS011;5106;50.926;7.080;2023-01-10T11:04:15;12.33;;;2.50;;
10132;SDS011;5106;50.926;7.080;2023-01-10T11:06:43;15.63;;;2.90;;
10132;SDS011;5106;50.926;7.080;2023-01-10T11:09:12;13.00;;;3.43;;
10132;SDS011;5106;50.926;7.080;2023-01-10T11:11:44;12.33;;;2.93;;
10132;SDS011;5106;50.926;7.080;2023-01-10T11:14:14;12.70;;;3.27;;
10132;SDS011;5106;50.926;7.080;2023-01-10T11:16:41;10.63;;;2.97;;
10132;SDS011;5106;50.926;7.080;2023-01-10T11:19:23;10.83;;;3.10;;
10132;SDS011;5106;50.926;7.080;2023-01-10T11:21:54;10.83;;;2.90;;
10132;SDS011;5106;50.926;7.080;2023-01-10T11:24:33;11.13;;;2.90;;
10132;SDS011;5106;50.926;7.080;2023-01-10T11:27:15;9.97;;;3.17;;
10132;SDS011;5106;50.926;7.080;2023-01-10T11:29:50;13.47;;;3.77;;
10132;SDS011;5106;50.926;7.080;2023-01-10T11:32:22;10.50;;;2.80;;
10132;SDS011;5106;50.926;7.080;2023-01-10T11:35:16;11.50;;;2.60;;
10132;SDS011;5106;50.926;7.080;2023-01-10T11:38:25;9.37;;;2.30;;
10132;SDS011;5106;50.926;7.080;2023-01-10T11:43:46;11.87;;;2.53;;
10132;SDS011;5106;50.926;7.080;2023-01-10T11:46:15;9.60;;;2.47;;
10132;SDS011;5106;50.926;7.080;2023-01-10T11:48:52;11.57;;;2.43;;
10132;SDS011;5106;50.926;7.080;2023-01-10T11:51:25;9.03;;;2.63;;
10132;SDS011;5106;50.926;7.080;2023-01-10T11:53:56;9.97;;;2.63;;
10132;SDS011;5106;50.926;7.080;2023-01-10T11:56:25;9.80;;;2.90;;
10132;SDS011;5106;50.926;7.080;2023-01-10T11:58:59;11.13;;;2.40;;
10132;SDS011;5106;50.926;7.080;2023-01-10T12:04:17;11.83;;;2.50;;
10132;SDS011;5106;50.926;7.080;2023-01-10T12:06:46;9.57;;;3.00;;
10132;SDS011;5106;50.926;7.080;2023-01-10T12:12:22;8.47;;;2.63;;
10132;SDS011;5106;50.926;7.080;2023-01-10T12:14:46;7.83;;;2.33;;
10132;SDS011;5106;50.926;7.080;2023-01-10T12:17:20;8.37;;;2.33;;
10132;SDS011;5106;50.926;7.080;2023-01-10T12:19:52;6.33;;;2.53;;
10132;SDS011;5106;50.926;7.080;2023-01-10T12:22:21;12.10;;;2.73;;
10132;SDS011;5106;50.926;7.080;2023-01-10T12:25:02;6.77;;;2.43;;
10132;SDS011;5106;50.926;7.080;2023-01-10T12:27:35;10.27;;;2.47;;
10132;SDS011;5106;50.926;7.080;2023-01-10T12:30:10;7.77;;;2.53;;
10132;SDS011;5106;50.926;7.080;2023-01-10T12:32:44;11.67;;;2.77;;
10132;SDS011;5106;50.926;7.080;2023-01-10T12:35:20;8.37;;;2.43;;
10132;SDS011;5106;50.926;7.080;2023-01-10T12:40:42;9.47;;;2.53;;
10132;SDS011;5106;50.926;7.080;2023-01-10T12:43:14;11.33;;;2.50;;
10132;SDS011;5106;50.926;7.080;2023-01-10T12:49:07;10.47;;;2.47;;
10132;SDS011;5106;50.926;7.080;2023-01-10T12:51:42;10.90;;;2.67;;
10132;SDS011;5106;50.926;7.080;2023-01-10T12:54:20;12.33;;;2.63;;
10132;SDS011;5106;50.926;7.080;2023-01-10T12:56:48;9.37;;;2.70;;
10132;SDS011;5106;50.926;7.080;2023-01-10T12:59:23;10.97;;;2.10;;
10132;SDS011;5106;50.926;7.080;2023-01-10T13:01:54;8.60;;;2.10;;
10132;SDS011;5106;50.926;7.080;2023-01-10T13:04:26;10.13;;;2.33;;
10132;SDS011;5106;50.926;7.080;2023-01-10T13:06:55;8.60;;;2.83;;
10132;SDS011;5106;50.926;7.080;2023-01-10T13:09:22;9.50;;;2.20;;
10132;SDS011;5106;50.926;7.080;2023-01-10T13:15:04;9.07;;;2.77;;
10132;SDS011;5106;50.926;7.080;2023-01-10T13:22:40;11.03;;;2.33;;
10132;SDS011;5106;50.926;7.080;2023-01-10T13:25:19;7.47;;;1.97;;
10132;SDS011;5106;50.926;7.080;2023-01-10T13:28:36;8.77;;;2.33;;
10132;SDS011;5106;50.926;7.080;2023-01-10T13:30:41;9.67;;;2.43;;
10132;SDS011;5106;50.926;7.080;2023-01-10T13:33:15;10.67;;;2.33;;
10132;SDS011;5106;50.926;7.080;2023-01-10T13:35:50;10.47;;;2.50;;
10132;SDS011;5106;50.926;7.080;2023-01-10T13:38:26;8.47;;;2.30;;
10132;SDS011;5106;50.926;7.080;2023-01-10T13:41:09;9.43;;;2.13;;
10132;SDS011;5106;50.926;7.080;2023-01-10T13:43:59;8.60;;;2.17;;
10132;SDS011;5106;50.926;7.080;2023-01-10T13:51:24;11.50;;;3.00;;
10132;SDS011;5106;50.926;7.080;2023-01-10T13:54:36;8.47;;;2.50;;
10132;SDS011;5106;50.926;7.080;2023-01-10T13:56:40;7.63;;;2.40;;
10132;SDS011;5106;50.926;7.080;2023-01-10T13:59:59;7.97;;;2.63;;
10132;SDS011;5106;50.926;7.080;2023-01-10T14:02:26;8.97;;;2.57;;
10132;SDS011;5106;50.926;7.080;2023-01-10T14:05:03;9.57;;;2.50;;
10132;SDS011;5106;50.926;7.080;2023-01-10T14:07:46;10.27;;;2.70;;
10132;SDS011;5106;50.926;7.080;2023-01-10T14:10:28;6.30;;;1.93;;
10132;SDS011;5106;50.926;7.080;2023-01-10T14:15:39;8.37;;;1.93;;
10132;SDS011;5106;50.926;7.080;2023-01-10T14:21:03;9.00;;;2.53;;
10132;SDS011;5106;50.926;7.080;2023-01-10T14:23:35;9.63;;;2.33;;
10132;SDS011;5106;50.926;7.080;2023-01-10T14:26:04;9.63;;;2.43;;
10132;SDS011;5106;50.926;7.080;2023-01-10T14:28:32;7.03;;;2.07;;
10132;SDS011;5106;50.926;7.080;2023-01-10T14:31:03;9.20;;;2.60;;
10132;SDS011;5106;50.926;7.080;2023-01-10T14:33:30;7.97;;;2.50;;
10132;SDS011;5106;50.926;7.080;2023-01-10T14:35:59;7.13;;;2.20;;
10132;SDS011;5106;50.926;7.080;2023-01-10T14:38:29;9.47;;;2.27;;
10132;SDS011;5106;50.926;7.080;2023-01-10T14:40:57;7.77;;;2.57;;
10132;SDS011;5106;50.926;7.080;2023-01-10T14:43:41;8.13;;;2.33;;
10132;SDS011;5106;50.926;7.080;2023-01-10T14:46:13;7.43;;;2.30;;
10132;SDS011;5106;50.926;7.080;2023-01-10T14:48:47;13.03;;;2.70;;
10132;SDS011;5106;50.926;7.080;2023-01-10T14:51:15;9.17;;;2.67;;
10132;SDS011;5106;50.926;7.080;2023-01-10T15:01:48;12.60;;;2.87;;
10132;SDS011;5106;50.926;7.080;2023-01-10T15:04:19;11.67;;;3.07;;
10132;SDS011;5106;50.926;7.080;2023-01-10T15:07:00;8.57;;;2.47;;
10132;SDS011;5106;50.926;7.080;2023-01-10T15:09:35;8.53;;;2.37;;
10132;SDS011;5106;50.926;7.080;2023-01-10T15:12:02;10.53;;;2.53;;
10132;SDS011;5106;50.926;7.080;2023-01-10T15:14:31;9.93;;;2.47;;
10132;SDS011;5106;50.926;7.080;2023-01-10T15:16:59;8.13;;;2.50;;
10132;SDS011;5106;50.926;7.080;2023-01-10T15:19:30;6.23;;;2.40;;
10132;SDS011;5106;50.926;7.080;2023-01-10T15:21:58;8.20;;;2.80;;
10132;SDS011;5106;50.926;7.080;2023-01-10T15:26:57;9.70;;;3.07;;
10132;SDS011;5106;50.926;7.080;2023-01-10T15:29:24;9.80;;;2.43;;
10132;SDS011;5106;50.926;7.080;2023-01-10T15:31:51;6.83;;;2.13;;
10132;SDS011;5106;50.926;7.080;2023-01-10T15:34:20;7.87;;;2.60;;
10132;SDS011;5106;50.926;7.080;2023-01-10T15:36:52;8.47;;;2.27;;
10132;SDS011;5106;50.926;7.080;2023-01-10T15:39:24;11.70;;;3.13;;
10132;SDS011;5106;50.926;7.080;2023-01-10T15:41:57;9.23;;;2.60;;
10132;SDS011;5106;50.926;7.080;2023-01-10T15:44:38;5.90;;;2.10;;
10132;SDS011;5106;50.926;7.080;2023-01-10T15:47:36;8.83;;;2.70;;
10132;SDS011;5106;50.926;7.080;2023-01-10T15:50:24;7.43;;;2.40;;
10132;SDS011;5106;50.926;7.080;2023-01-10T15:53:00;9.73;;;2.53;;
10132;SDS011;5106;50.926;7.080;2023-01-10T15:58:04;9.33;;;2.70;;
10132;SDS011;5106;50.926;7.080;2023-01-10T16:00:47;8.43;;;2.57;;
10132;SDS011;5106;50.926;7.080;2023-01-10T16:03:21;10.97;;;2.97;;
10132;SDS011;5106;50.926;7.080;2023-01-10T16:05:54;12.07;;;2.67;;
10132;SDS011;5106;50.926;7.080;2023-01-10T16:08:24;8.97;;;2.97;;
10132;SDS011;5106;50.926;7.080;2023-01-10T16:10:59;8.40;;;2.43;;
10132;SDS011;5106;50.926;7.080;2023-01-10T16:13:28;10.40;;;2.73;;
10132;SDS011;5106;50.926;7.080;2023-01-10T16:15:59;8.83;;;2.50;;
10132;SDS011;5106;50.926;7.080;2023-01-10T16:18:29;8.07;;;2.50;;
10132;SDS011;5106;50.926;7.080;2023-01-10T16:20:58;10.53;;;2.90;;
10132;SDS011;5106;50.926;7.080;2023-01-10T16:23:27;12.30;;;2.63;;
10132;SDS011;5106;50.926;7.080;2023-01-10T16:25:57;8.77;;;2.57;;
10132;SDS011;5106;50.926;7.080;2023-01-10T16:28:25;9.50;;;2.80;;
10132;SDS011;5106;50.926;7.080;2023-01-10T16:30:54;7.97;;;2.93;;
10132;SDS011;5106;50.926;7.080;2023-01-10T16:33:22;14.80;;;2.97;;
10132;SDS011;5106;50.926;7.080;2023-01-10T16:35:54;7.40;;;2.33;;
10132;SDS011;5106;50.926;7.080;2023-01-10T16:38:21;8.10;;;2.47;;
10132;SDS011;5106;50.926;7.080;2023-01-10T16:40:49;8.37;;;2.53;;
10132;SDS011;5106;50.926;7.080;2023-01-10T16:43:19;9.70;;;2.80;;
10132;SDS011;5106;50.926;7.080;2023-01-10T16:45:51;8.87;;;2.53;;
10132;SDS011;5106;50.926;7.080;2023-01-10T16:48:24;5.97;;;1.93;;
10132;SDS011;5106;50.926;7.080;2023-01-10T16:50:51;10.37;;;2.60;;
10132;SDS011;5106;50.926;7.080;2023-01-10T16:53:17;9.17;;;2.17;;
10132;SDS011;5106;50.926;7.080;2023-01-10T16:55:47;9.23;;;2.67;;
10132;SDS011;5106;50.926;7.080;2023-01-10T16:58:15;12.53;;;2.47;;
10132;SDS011;5106;50.926;7.080;2023-01-10T17:00:43;8.03;;;2.70;;
10132;SDS011;5106;50.926;7.080;2023-01-10T17:03:12;7.57;;;2.10;;
10132;SDS011;5106;50.926;7.080;2023-01-10T17:05:48;8.03;;;2.57;;
10132;SDS011;5106;50.926;7.080;2023-01-10T17:08:23;7.67;;;2.60;;
10132;SDS011;5106;50.926;7.080;2023-01-10T17:10:52;11.90;;;2.80;;